Travis Air Force Base Fairfield US
ICAO: KSUU
IATA: SUU
Category: Large
Scheduled Services: No

Elevation: 62 ft
TransAlt. 18000 ft.

Airport Communications:
APP:119.9
ATIS:116.4
CLNC DEL:127.55
DEP:119.9
GND:121.8
PMSV METRO:26.92
COMD POST:141.9
PTD:28.557
TWR:120.75
AERO CLUB UNICOM:123.3

KSUU Zoom In..

If you have problems with the map follow the link
https://www.worldairports.se/pages/airport.php?
ICAO=KSUU

Runways:

(A) RW 03L length 11001 ft width 150 ft
ILS 108.35 / hdg 32

(B) RW 03R length 10995 ft width 150 ft
---- / hdg 32

(C) RW 21L length 10995 ft width 150 ft
ILS 110.10 / hdg 212

(D) RW 21R length 11001 ft width 150 ft
ILS 108.35 / hdg 212

Location; KSUU
Day. 26 / Time. 00.58 Zulu
* Altimeter: 30.07
* Temperature: 14° c. 57.2°f.
* Wind from: 120° Speed 04 kn.
Dewpoint: 11° c.
Visibility: 10 Statute Miles.
Clouds: Few 13000 ft.
Clouds: Few 16000 ft.

KSUU 260058Z AUTO 12004KT 10SM FEW130 FEW160 14/11 A3007 RMK AO2 SLP189 T01430113 $


Wind From 120°
Speed 04 kn.

 
 
jpsmedia worldairports.se 2020   terms of use